createdAt,value
2019-01-04T00:00:05.572Z,103017.05
2019-01-04T00:02:32.493Z,103015.45
2019-01-04T00:04:59.440Z,103020.14
2019-01-04T00:07:26.365Z,103010.40
2019-01-04T00:09:53.349Z,103011.43
2019-01-04T00:12:20.326Z,103011.81
2019-01-04T00:14:47.327Z,103004.33
2019-01-04T00:17:14.250Z,103008.89
2019-01-04T00:19:41.121Z,103008.23
2019-01-04T00:22:08.068Z,103004.67
2019-01-04T00:24:34.955Z,103001.06
2019-01-04T00:27:01.889Z,103007.09
2019-01-04T00:29:28.804Z,103011.88
2019-01-04T00:31:55.733Z,103016.63
2019-01-04T00:34:22.665Z,103006.63
2019-01-04T00:36:49.622Z,103012.66
2019-01-04T00:39:16.501Z,103010.18
2019-01-04T00:41:43.414Z,103001.94
2019-01-04T00:44:10.337Z,103004.62
2019-01-04T00:46:37.255Z,102997.04
2019-01-04T00:49:04.190Z,102993.70
2019-01-04T00:51:31.108Z,102993.53
2019-01-04T00:53:57.979Z,103005.20
2019-01-04T00:57:02.351Z,103013.66
2019-01-04T01:00:01.350Z,103005.66
2019-01-04T01:03:02.694Z,103001.08
2019-01-04T01:06:25.986Z,103009.89
2019-01-04T01:09:36.520Z,103005.77
2019-01-04T01:12:44.091Z,103010.30
2019-01-04T01:16:06.641Z,103014.94
2019-01-04T01:19:16.932Z,103020.56
2019-01-04T01:22:20.443Z,103026.39
2019-01-04T01:25:17.282Z,103024.58
2019-01-04T01:28:13.059Z,103030.26
2019-01-04T01:31:27.321Z,103030.77
2019-01-04T01:34:22.262Z,103034.16
2019-01-04T01:37:25.612Z,103055.00
2019-01-04T01:40:29.358Z,103053.87
2019-01-04T01:43:33.150Z,103049.95
2019-01-04T01:46:42.695Z,103046.52
2019-01-04T01:49:50.334Z,103037.15
2019-01-04T01:52:22.189Z,103037.72
2019-01-04T01:54:49.103Z,103030.98
2019-01-04T01:57:15.989Z,103039.31
2019-01-04T01:59:42.896Z,103029.98
2019-01-04T02:02:09.770Z,103033.09
2019-01-04T02:04:36.721Z,103027.84
2019-01-04T02:07:03.605Z,103020.64
2019-01-04T02:09:30.501Z,103019.83
2019-01-04T02:11:57.495Z,103015.30
2019-01-04T02:14:24.400Z,103016.08
2019-01-04T02:16:51.339Z,103009.12
2019-01-04T02:19:18.286Z,103020.16
2019-01-04T02:21:45.167Z,103008.81
2019-01-04T02:24:12.087Z,103013.39
2019-01-04T02:26:38.968Z,103013.05
2019-01-04T02:29:05.906Z,103022.83
2019-01-04T02:31:32.771Z,103020.16
2019-01-04T02:33:59.732Z,103025.26
2019-01-04T02:36:26.609Z,102988.39
2019-01-04T02:38:53.548Z,103025.16
2019-01-04T02:41:20.433Z,103026.97
2019-01-04T02:43:47.339Z,103028.97
2019-01-04T02:46:14.216Z,103025.69
2019-01-04T02:48:41.156Z,103031.05
2019-01-04T02:51:08.033Z,103024.48
2019-01-04T02:53:34.950Z,103016.55
2019-01-04T02:56:01.826Z,103019.94
2019-01-04T02:58:28.762Z,103022.53
2019-01-04T03:00:55.653Z,103024.95
2019-01-04T03:03:22.521Z,103027.89
2019-01-04T03:05:49.432Z,103029.13
2019-01-04T03:08:16.315Z,103023.77
2019-01-04T03:10:43.226Z,103019.59
2019-01-04T03:13:10.095Z,103009.94
2019-01-04T03:15:37.003Z,103005.55
2019-01-04T03:18:03.886Z,103003.34
2019-01-04T03:20:30.789Z,103000.55
2019-01-04T03:22:57.690Z,102991.27
2019-01-04T03:25:24.587Z,102985.56
2019-01-04T03:27:51.473Z,102989.11
2019-01-04T03:30:18.385Z,102981.07
2019-01-04T03:32:45.280Z,102964.14
2019-01-04T03:35:12.198Z,102964.82
2019-01-04T03:37:41.852Z,102964.39
2019-01-04T03:40:09.275Z,102958.37
2019-01-04T03:42:36.151Z,102958.77
2019-01-04T03:45:03.775Z,102963.56
2019-01-04T03:47:30.657Z,102963.77
2019-01-04T03:49:57.602Z,102963.94
2019-01-04T03:52:24.479Z,102976.30
2019-01-04T03:54:51.394Z,102980.07
2019-01-04T03:57:18.274Z,102983.80
2019-01-04T03:59:45.182Z,102983.80
2019-01-04T04:02:12.064Z,102980.89
2019-01-04T04:04:39.035Z,102974.46
2019-01-04T04:07:06.035Z,102971.21
2019-01-04T04:09:32.978Z,102963.53
2019-01-04T04:11:59.896Z,102958.27
2019-01-04T04:14:26.780Z,102958.67
2019-01-04T04:16:53.709Z,102959.91
2019-01-04T04:19:20.639Z,102953.75
2019-01-04T04:21:47.600Z,102953.40
2019-01-04T04:24:14.499Z,102949.03
2019-01-04T04:26:41.421Z,102940.94
2019-01-04T04:29:08.348Z,102943.91
2019-01-04T04:31:35.291Z,102926.11
2019-01-04T04:34:02.236Z,102922.20
2019-01-04T04:36:29.168Z,102920.98
2019-01-04T04:38:56.068Z,102931.91
2019-01-04T04:41:22.982Z,102932.77
2019-01-04T04:43:49.889Z,102937.42
2019-01-04T04:46:16.811Z,102930.89
2019-01-04T04:48:43.719Z,102936.95
2019-01-04T04:51:10.653Z,102940.65
2019-01-04T04:53:37.558Z,102940.84
2019-01-04T04:56:04.452Z,102936.69
2019-01-04T04:58:31.359Z,102934.28
2019-01-04T05:00:58.291Z,102931.67
2019-01-04T05:03:25.204Z,102939.53
2019-01-04T05:05:52.135Z,102934.92
2019-01-04T05:08:19.012Z,102930.79
2019-01-04T05:10:45.952Z,102928.82
2019-01-04T05:13:12.859Z,102934.72
2019-01-04T05:15:39.884Z,102938.41
2019-01-04T05:18:06.794Z,102933.42
2019-01-04T05:20:33.702Z,102929.02
2019-01-04T05:23:00.586Z,102926.69
2019-01-04T05:25:27.498Z,102913.20
2019-01-04T05:27:54.373Z,102899.55
2019-01-04T05:30:21.251Z,102901.53
2019-01-04T05:32:48.163Z,102900.16
2019-01-04T05:35:15.080Z,102892.49
2019-01-04T05:37:42.009Z,102874.30
2019-01-04T05:40:08.940Z,102881.34
2019-01-04T05:42:35.868Z,102885.95
2019-01-04T05:45:02.994Z,102885.97
2019-01-04T05:47:29.919Z,102900.36
2019-01-04T05:49:56.915Z,102878.50
2019-01-04T05:52:23.851Z,102874.91
2019-01-04T05:54:50.765Z,102879.84
2019-01-04T05:57:17.744Z,102875.92
2019-01-04T05:59:44.730Z,102867.55
2019-01-04T06:02:11.685Z,102872.84
2019-01-04T06:04:38.565Z,102871.83
2019-01-04T06:07:05.513Z,102864.59
2019-01-04T06:09:32.439Z,102866.94
2019-01-04T06:11:59.448Z,102873.08
2019-01-04T06:14:26.337Z,102882.38
2019-01-04T06:16:53.257Z,102883.95
2019-01-04T06:19:20.171Z,102897.50
2019-01-04T06:21:47.099Z,102897.24
2019-01-04T06:24:14.082Z,102893.42
2019-01-04T06:26:41.018Z,102886.05
2019-01-04T06:29:07.931Z,102894.11
2019-01-04T06:31:34.854Z,102886.55
2019-01-04T06:34:01.880Z,102890.84
2019-01-04T06:36:28.830Z,102896.42
2019-01-04T06:38:55.720Z,102889.77
2019-01-04T06:41:22.605Z,102883.59
2019-01-04T06:43:50.021Z,102882.64
2019-01-04T06:46:16.921Z,102882.78
2019-01-04T06:48:44.092Z,102879.98
2019-01-04T06:51:11.001Z,102875.46
2019-01-04T06:53:37.928Z,102885.13
2019-01-04T06:56:07.031Z,102888.20
2019-01-04T06:58:33.967Z,102879.59
2019-01-04T07:01:00.891Z,102884.53
2019-01-04T07:03:27.811Z,102887.39
2019-01-04T07:05:54.701Z,102887.85
2019-01-04T07:08:21.643Z,102879.18
2019-01-04T07:10:48.597Z,102876.61
2019-01-04T07:13:15.634Z,102879.85
2019-01-04T07:15:42.518Z,102885.02
2019-01-04T07:18:09.441Z,102885.98
2019-01-04T07:20:36.355Z,102882.30
2019-01-04T07:23:03.301Z,102876.86
2019-01-04T07:25:30.190Z,102874.27
2019-01-04T07:27:57.112Z,102865.88
2019-01-04T07:30:24.013Z,102869.52
2019-01-04T07:32:50.940Z,102865.92
2019-01-04T07:35:17.811Z,102864.22
2019-01-04T07:37:44.737Z,102875.97
2019-01-04T07:40:12.357Z,102883.03
2019-01-04T07:42:39.377Z,102881.28
2019-01-04T07:45:07.697Z,102884.73
2019-01-04T07:47:34.780Z,102874.96
2019-01-04T07:50:02.236Z,102870.68
2019-01-04T07:52:29.167Z,102872.52
2019-01-04T07:54:56.104Z,102872.98
2019-01-04T07:57:23.085Z,102870.77
2019-01-04T07:59:50.219Z,102870.21
2019-01-04T08:02:45.911Z,102867.82
2019-01-04T08:05:15.548Z,102862.19
2019-01-04T08:07:42.448Z,102857.20
2019-01-04T08:10:09.391Z,102845.72
2019-01-04T08:12:36.289Z,102836.12
2019-01-04T08:15:04.569Z,102832.05
2019-01-04T08:17:31.477Z,102829.69
2019-01-04T08:19:58.407Z,102823.98
2019-01-04T08:22:25.296Z,102830.91
2019-01-04T08:24:52.230Z,102837.28
2019-01-04T08:27:19.144Z,102831.32
2019-01-04T08:29:46.061Z,102832.17
2019-01-04T08:32:12.958Z,102830.51
2019-01-04T08:34:39.896Z,102841.56
2019-01-04T08:37:06.795Z,102839.91
2019-01-04T08:39:33.715Z,102834.43
2019-01-04T08:42:00.615Z,102832.27
2019-01-04T08:44:27.551Z,102841.39
2019-01-04T08:46:54.445Z,102838.59
2019-01-04T08:49:21.434Z,102834.61
2019-01-04T08:51:48.334Z,102832.73
2019-01-04T08:54:15.275Z,102848.83
2019-01-04T08:56:42.169Z,102838.32
2019-01-04T08:59:09.121Z,102841.45
2019-01-04T09:01:36.022Z,102831.69
2019-01-04T09:04:02.952Z,102825.89
2019-01-04T09:06:29.913Z,102829.23
2019-01-04T09:08:56.817Z,102825.00
2019-01-04T09:11:23.748Z,102820.53
2019-01-04T09:13:50.798Z,102808.20
2019-01-04T09:16:17.723Z,102813.73
2019-01-04T09:18:44.681Z,102807.13
2019-01-04T09:21:11.691Z,102815.89
2019-01-04T09:23:38.584Z,102810.77
2019-01-04T09:26:05.502Z,102806.17
2019-01-04T09:28:32.426Z,102800.69
2019-01-04T09:30:59.373Z,102803.01
2019-01-04T09:33:26.309Z,102804.16
2019-01-04T09:35:53.242Z,102801.08
2019-01-04T09:38:20.126Z,102795.86
2019-01-04T09:40:51.251Z,102792.81
2019-01-04T09:43:18.198Z,102794.48
2019-01-04T09:45:45.143Z,102788.82
2019-01-04T09:48:12.031Z,102783.73
2019-01-04T09:50:39.021Z,102784.44
2019-01-04T09:53:05.970Z,102776.63
2019-01-04T09:55:32.897Z,102769.28
2019-01-04T09:57:59.790Z,102763.23
2019-01-04T10:00:26.752Z,102770.27
2019-01-04T10:02:53.739Z,102766.38
2019-01-04T10:05:20.698Z,102763.59
2019-01-04T10:07:47.656Z,102756.50
2019-01-04T10:10:14.607Z,102754.16
2019-01-04T10:12:41.534Z,102748.00
2019-01-04T10:15:11.301Z,102753.14
2019-01-04T10:17:38.240Z,102749.86
2019-01-04T10:20:06.145Z,102745.41
2019-01-04T10:22:33.064Z,102744.08
2019-01-04T10:25:00.325Z,102730.08
2019-01-04T10:27:27.267Z,102736.20
2019-01-04T10:29:55.617Z,102728.13
2019-01-04T10:32:22.546Z,102730.81
2019-01-04T10:34:49.489Z,102719.89
2019-01-04T10:37:16.493Z,102727.95
2019-01-04T10:39:43.452Z,102713.67
2019-01-04T10:42:10.389Z,102717.13
2019-01-04T10:44:37.313Z,102695.32
2019-01-04T10:47:04.245Z,102689.09
2019-01-04T10:49:31.260Z,102691.23
2019-01-04T10:51:58.294Z,102691.44
2019-01-04T10:54:25.188Z,102689.69
2019-01-04T10:56:52.135Z,102683.45
2019-01-04T10:59:19.051Z,102677.64
2019-01-04T11:01:45.984Z,102678.79
2019-01-04T11:04:12.869Z,102636.54
2019-01-04T11:06:39.857Z,102668.68
2019-01-04T11:09:08.549Z,102662.44
2019-01-04T11:11:35.512Z,102667.35
2019-01-04T11:14:02.420Z,102674.15
2019-01-04T11:16:29.355Z,102671.55
2019-01-04T11:18:56.270Z,102673.41
2019-01-04T11:21:23.437Z,102660.66
2019-01-04T11:24:14.662Z,102658.45
2019-01-04T11:27:00.305Z,102655.47
2019-01-04T11:30:00.455Z,102652.40
2019-01-04T11:33:19.889Z,102642.81
2019-01-04T11:36:26.469Z,102649.97
2019-01-04T11:39:35.165Z,102644.52
2019-01-04T11:42:23.314Z,102649.88
2019-01-04T11:45:17.997Z,102663.14
2019-01-04T11:48:34.103Z,102662.73
2019-01-04T11:51:28.708Z,102648.61
2019-01-04T11:53:55.725Z,102633.52
2019-01-04T11:56:22.645Z,102632.70
2019-01-04T11:58:49.629Z,102617.30
2019-01-04T12:01:16.558Z,102611.89
2019-01-04T12:03:54.829Z,102599.78
2019-01-04T12:06:21.725Z,102595.59
2019-01-04T12:08:48.671Z,102595.24
2019-01-04T12:11:15.568Z,102591.52
2019-01-04T12:13:42.498Z,102592.06
2019-01-04T12:16:09.396Z,102582.22
2019-01-04T12:18:36.368Z,102576.95
2019-01-04T12:21:03.293Z,102586.66
2019-01-04T12:23:30.445Z,102577.27
2019-01-04T12:25:57.403Z,102577.74
2019-01-04T12:28:24.337Z,102566.17
2019-01-04T12:30:51.246Z,102569.97
2019-01-04T12:33:18.254Z,102561.47
2019-01-04T12:35:45.188Z,102550.16
2019-01-04T12:38:12.145Z,102544.23
2019-01-04T12:40:39.102Z,102539.70
2019-01-04T12:43:06.058Z,102537.09
2019-01-04T12:45:32.992Z,102521.45
2019-01-04T12:48:00.034Z,102514.65
2019-01-04T12:50:26.955Z,102507.72
2019-01-04T12:52:53.928Z,102502.57
2019-01-04T12:55:20.835Z,102500.40
2019-01-04T12:57:47.769Z,102504.05
2019-01-04T13:00:14.670Z,102504.78
2019-01-04T13:02:41.658Z,102507.63
2019-01-04T13:05:08.542Z,102506.59
2019-01-04T13:07:35.570Z,102515.84
2019-01-04T13:10:02.714Z,102517.92
2019-01-04T13:12:29.624Z,102521.72
2019-01-04T13:14:56.627Z,102533.44
2019-01-04T13:17:23.525Z,102519.28
2019-01-04T13:19:50.727Z,102521.58
2019-01-04T13:22:17.649Z,102518.98
2019-01-04T13:24:44.600Z,102517.23
2019-01-04T13:27:11.532Z,102504.16
2019-01-04T13:29:38.466Z,102496.52
2019-01-04T13:32:05.393Z,102478.59
2019-01-04T13:34:32.333Z,102479.56
2019-01-04T13:36:59.257Z,102475.80
2019-01-04T13:39:26.297Z,102485.46
2019-01-04T13:41:53.270Z,102483.98
2019-01-04T13:44:20.246Z,102488.63
2019-01-04T13:46:47.151Z,102478.83
2019-01-04T13:49:14.152Z,102477.78
2019-01-04T13:51:41.127Z,102487.39
2019-01-04T13:54:08.082Z,102498.89
2019-01-04T13:56:35.099Z,102497.84
2019-01-04T13:59:02.045Z,102492.17
2019-01-04T14:01:29.051Z,102488.77
2019-01-04T14:03:55.970Z,102491.97
2019-01-04T14:06:22.872Z,102511.70
2019-01-04T14:08:49.825Z,102506.91
2019-01-04T14:11:16.731Z,102512.48
2019-01-04T14:13:43.675Z,102519.80
2019-01-04T14:16:10.641Z,102531.77
2019-01-04T14:18:37.577Z,102534.45
2019-01-04T14:21:04.524Z,102533.42
2019-01-04T14:23:31.419Z,102529.89
2019-01-04T14:25:58.580Z,102530.22
2019-01-04T14:28:25.492Z,102534.20
2019-01-04T14:30:52.432Z,102522.12
2019-01-04T14:33:19.316Z,102522.33
2019-01-04T14:35:46.375Z,102515.58
2019-01-04T14:38:13.321Z,102508.45
2019-01-04T14:40:40.239Z,102508.30
2019-01-04T14:43:07.196Z,102490.22
2019-01-04T14:45:34.139Z,102484.95
2019-01-04T14:48:01.060Z,102479.25
2019-01-04T14:50:28.205Z,102477.81
2019-01-04T14:52:55.101Z,102477.27
2019-01-04T14:55:22.025Z,102482.98
2019-01-04T14:57:51.126Z,102481.16
2019-01-04T15:00:18.197Z,102481.16
2019-01-04T15:02:45.346Z,102488.20
2019-01-04T15:05:12.279Z,102474.59
2019-01-04T15:07:39.404Z,102471.60
2019-01-04T15:10:07.925Z,102469.92
2019-01-04T15:12:34.859Z,102483.59
2019-01-04T15:15:01.896Z,102479.44
2019-01-04T15:17:28.880Z,102484.16
2019-01-04T15:19:56.175Z,102477.30
2019-01-04T15:22:23.113Z,102469.34
2019-01-04T15:24:50.141Z,102481.88
2019-01-04T15:27:17.059Z,102480.48
2019-01-04T15:29:44.028Z,102479.02
2019-01-04T15:32:10.989Z,102477.81
2019-01-04T15:34:37.904Z,102473.30
2019-01-04T15:37:04.956Z,102470.70
2019-01-04T15:39:31.863Z,102467.44
2019-01-04T15:41:58.773Z,102463.53
2019-01-04T15:44:25.695Z,102466.60
2019-01-04T15:46:52.691Z,102454.94
2019-01-04T15:49:19.725Z,102460.75
2019-01-04T15:51:46.653Z,102455.56
2019-01-04T15:54:13.564Z,102454.16
2019-01-04T15:56:40.651Z,102453.40
2019-01-04T15:59:07.607Z,102456.53
2019-01-04T16:01:34.526Z,102457.70
2019-01-04T16:04:01.499Z,102448.10
2019-01-04T16:06:28.442Z,102443.45
2019-01-04T16:08:55.373Z,102446.02
2019-01-04T16:11:22.298Z,102449.48
2019-01-04T16:13:49.220Z,102446.80
2019-01-04T16:16:16.162Z,102447.06
2019-01-04T16:18:43.069Z,102434.84
2019-01-04T16:21:10.044Z,102430.14
2019-01-04T16:23:36.991Z,102425.06
2019-01-04T16:26:03.937Z,102423.27
2019-01-04T16:28:30.914Z,102421.94
2019-01-04T16:30:57.847Z,102428.02
2019-01-04T16:33:24.836Z,102427.91
2019-01-04T16:35:51.936Z,102411.48
2019-01-04T16:38:18.867Z,102417.19
2019-01-04T16:40:45.780Z,102398.73
2019-01-04T16:43:12.721Z,102400.00
2019-01-04T16:45:40.716Z,102396.53
2019-01-04T16:48:07.635Z,102390.11
2019-01-04T16:50:34.548Z,102387.06
2019-01-04T16:53:01.482Z,102394.59
2019-01-04T16:55:28.526Z,102384.90
2019-01-04T16:57:55.645Z,102391.99
2019-01-04T17:00:22.545Z,102392.76
2019-01-04T17:02:49.523Z,102392.67
2019-01-04T17:05:16.635Z,102386.30
2019-01-04T17:07:43.585Z,102394.00
2019-01-04T17:10:10.489Z,102375.41
2019-01-04T17:12:37.410Z,102384.88
2019-01-04T17:15:04.634Z,102383.69
2019-01-04T17:17:31.565Z,102390.07
2019-01-04T17:19:58.482Z,102381.97
2019-01-04T17:22:25.442Z,102385.77
2019-01-04T17:24:52.331Z,102387.93
2019-01-04T17:27:19.276Z,102384.73
2019-01-04T17:29:46.201Z,102386.19
2019-01-04T17:32:13.153Z,102383.52
2019-01-04T17:34:40.054Z,102393.96
2019-01-04T17:37:06.993Z,102379.73
2019-01-04T17:39:33.903Z,102381.53
2019-01-04T17:42:00.831Z,102381.47
2019-01-04T17:44:27.779Z,102373.67
2019-01-04T17:46:54.673Z,102381.88
2019-01-04T17:49:21.630Z,102382.83
2019-01-04T17:51:48.649Z,102382.05
2019-01-04T17:54:15.750Z,102375.13
2019-01-04T17:56:42.646Z,102374.69
2019-01-04T17:59:09.585Z,102379.89
2019-01-04T18:01:36.527Z,102365.97
2019-01-04T18:04:03.560Z,102382.91
2019-01-04T18:06:30.484Z,102384.65
2019-01-04T18:08:57.443Z,102382.91
2019-01-04T18:11:24.367Z,102379.91
2019-01-04T18:13:51.284Z,102383.36
2019-01-04T18:16:18.193Z,102385.50
2019-01-04T18:18:45.212Z,102386.88
2019-01-04T18:21:12.139Z,102381.34
2019-01-04T18:23:39.086Z,102376.88
2019-01-04T18:26:06.073Z,102387.69
2019-01-04T18:28:33.358Z,102382.19
2019-01-04T18:31:00.288Z,102381.16
2019-01-04T18:33:27.409Z,102385.50
2019-01-04T18:35:54.381Z,102376.32
2019-01-04T18:38:21.328Z,102380.47
2019-01-04T18:40:48.347Z,102378.67
2019-01-04T18:43:15.342Z,102381.37
2019-01-04T18:45:42.251Z,102388.70
2019-01-04T18:48:09.185Z,102393.56
2019-01-04T18:50:36.429Z,102398.75
2019-01-04T18:53:03.431Z,102396.64
2019-01-04T18:55:30.326Z,102397.45
2019-01-04T18:57:57.389Z,102384.04
2019-01-04T19:00:25.754Z,102387.06
2019-01-04T19:02:52.685Z,102396.92
2019-01-04T19:05:19.607Z,102407.36
2019-01-04T19:07:46.623Z,102387.41
2019-01-04T19:10:13.583Z,102392.69
2019-01-04T19:12:40.508Z,102393.02
2019-01-04T19:15:08.249Z,102398.70
2019-01-04T19:17:35.184Z,102398.70
2019-01-04T19:20:02.732Z,102393.97
2019-01-04T19:22:29.654Z,102388.44
2019-01-04T19:24:56.615Z,102392.75
2019-01-04T19:27:23.536Z,102395.34
2019-01-04T19:29:50.494Z,102385.13
2019-01-04T19:32:17.504Z,102390.31
2019-01-04T19:34:44.472Z,102381.63
2019-01-04T19:37:11.418Z,102385.57
2019-01-04T19:39:38.362Z,102393.88
2019-01-04T19:42:05.304Z,102394.65
2019-01-04T19:44:32.278Z,102397.34
2019-01-04T19:46:59.237Z,102392.73
2019-01-04T19:49:26.298Z,102394.28
2019-01-04T19:51:53.293Z,102365.89
2019-01-04T19:54:20.251Z,102390.52
2019-01-04T19:56:47.164Z,102387.02
2019-01-04T19:59:14.156Z,102380.06
2019-01-04T20:01:41.075Z,102382.73
2019-01-04T20:04:08.036Z,102381.94
2019-01-04T20:07:36.283Z,102381.48
2019-01-04T20:11:15.036Z,102378.13
2019-01-04T20:14:48.467Z,102364.12
2019-01-04T20:17:43.726Z,102373.28
2019-01-04T20:20:42.260Z,102378.02
2019-01-04T20:23:27.463Z,102365.05
2019-01-04T20:26:28.774Z,102362.13
2019-01-04T20:29:25.961Z,102365.25
2019-01-04T20:32:16.925Z,102370.32
2019-01-04T20:35:02.153Z,102359.24
2019-01-04T20:37:54.413Z,102363.58
2019-01-04T20:40:39.605Z,102364.38
2019-01-04T20:43:38.491Z,102360.36
2019-01-04T20:46:25.072Z,102356.11
2019-01-04T20:49:17.484Z,102348.94
2019-01-04T20:52:03.440Z,102340.05
2019-01-04T20:54:50.038Z,102342.05
2019-01-04T20:57:36.564Z,102341.61
2019-01-04T21:00:41.776Z,102332.26
2019-01-04T21:03:33.947Z,102333.11
2019-01-04T21:06:19.228Z,102336.16
2019-01-04T21:09:04.795Z,102325.06
2019-01-04T21:11:50.279Z,102315.09
2019-01-04T21:14:35.502Z,102318.13
2019-01-04T21:17:36.882Z,102309.83
2019-01-04T21:20:26.751Z,102307.33
2019-01-04T21:23:12.407Z,102303.42
2019-01-04T21:25:59.021Z,102303.93
2019-01-04T21:29:00.697Z,102299.59
2019-01-04T21:31:53.339Z,102293.69
2019-01-04T21:34:42.882Z,102298.02
2019-01-04T21:37:28.034Z,102293.19
2019-01-04T21:40:10.544Z,102289.06
2019-01-04T21:43:14.034Z,102284.67
2019-01-04T21:45:59.453Z,102278.31
2019-01-04T21:48:41.109Z,102274.36
2019-01-04T21:51:27.703Z,102268.09
2019-01-04T21:54:08.266Z,102262.77
2019-01-04T21:56:55.077Z,102264.56
2019-01-04T21:59:40.045Z,102284.95
2019-01-04T22:02:32.448Z,102273.41
2019-01-04T22:05:22.219Z,102275.88
2019-01-04T22:08:17.786Z,102275.22
2019-01-04T22:11:03.088Z,102275.62
2019-01-04T22:13:48.028Z,102276.01
2019-01-04T22:16:33.103Z,102271.73
2019-01-04T22:19:23.935Z,102268.34
2019-01-04T22:22:10.502Z,102261.73
2019-01-04T22:25:02.949Z,102264.83
2019-01-04T22:27:48.219Z,102253.14
2019-01-04T22:30:40.458Z,102245.78
2019-01-04T22:33:22.431Z,102244.92
2019-01-04T22:36:11.873Z,102247.50
2019-01-04T22:38:57.210Z,102243.73
2019-01-04T22:41:40.887Z,102246.22
2019-01-04T22:44:30.739Z,102245.05
2019-01-04T22:47:22.529Z,102246.72
2019-01-04T22:50:06.076Z,102239.84
2019-01-04T22:52:55.446Z,102239.48
2019-01-04T22:55:41.974Z,102246.05
2019-01-04T22:58:20.419Z,102237.75
2019-01-04T23:01:12.954Z,102241.66
2019-01-04T23:03:58.232Z,102238.55
2019-01-04T23:06:43.238Z,102232.42
2019-01-04T23:09:38.382Z,102232.01
2019-01-04T23:12:23.589Z,102229.46
2019-01-04T23:15:19.886Z,102220.89
2019-01-04T23:18:17.009Z,102223.95
2019-01-04T23:21:04.020Z,102217.03
2019-01-04T23:23:52.848Z,102217.03
2019-01-04T23:26:51.087Z,102214.39
2019-01-04T23:29:40.672Z,102220.58
2019-01-04T23:32:25.899Z,102210.93
2019-01-04T23:35:10.888Z,102205.05
2019-01-04T23:37:57.452Z,102197.56
2019-01-04T23:40:42.552Z,102192.37
2019-01-04T23:43:33.236Z,102195.08
2019-01-04T23:46:18.358Z,102195.82
2019-01-04T23:49:04.296Z,102184.15
2019-01-04T23:52:03.197Z,102192.00
2019-01-04T23:55:07.698Z,102188.03
2019-01-04T23:58:04.149Z,102185.94
